createdAt,value
2023-06-03T00:09:08.549Z,99805.04
2023-06-03T00:13:58.764Z,99800.85
2023-06-03T00:16:02.246Z,99801.87
2023-06-03T00:19:29.581Z,99806.14
2023-06-03T00:24:03.919Z,99806.66
2023-06-03T00:25:48.484Z,99808.71
2023-06-03T00:32:07.499Z,99807.90
2023-06-03T00:34:34.457Z,99805.06
2023-06-03T00:37:01.266Z,99810.14
2023-06-03T00:39:27.936Z,99809.07
2023-06-03T00:41:57.665Z,99810.55
2023-06-03T00:44:24.502Z,99806.61
2023-06-03T00:46:51.621Z,99813.50
2023-06-03T00:49:18.700Z,99810.11
2023-06-03T00:51:47.085Z,99810.07
2023-06-03T00:54:15.520Z,99813.55
2023-06-03T00:56:45.085Z,99818.32
2023-06-03T00:59:16.086Z,99809.73
2023-06-03T01:01:44.180Z,99806.84
2023-06-03T01:04:17.278Z,99810.81
2023-06-03T01:07:00.927Z,99806.64
2023-06-03T01:09:49.049Z,99806.45
2023-06-03T01:12:39.353Z,99803.81
2023-06-03T01:15:25.147Z,99801.63
2023-06-03T01:17:53.460Z,99801.98
2023-06-03T01:20:28.239Z,99806.78
2023-06-03T01:23:21.217Z,99807.45
2023-06-03T01:25:51.400Z,99809.72
2023-06-03T01:28:24.291Z,99814.48
2023-06-03T01:30:52.288Z,99813.95
2023-06-03T01:33:22.007Z,99814.23
2023-06-03T01:35:50.511Z,99813.71
2023-06-03T01:38:21.198Z,99817.33
2023-06-03T01:40:49.534Z,99817.59
2023-06-03T01:43:16.695Z,99812.83
2023-06-03T01:45:43.629Z,99813.91
2023-06-03T01:48:10.500Z,99812.20
2023-06-03T01:50:42.237Z,99809.53
2023-06-03T01:53:17.565Z,99810.04
2023-06-03T01:55:47.190Z,99817.15
2023-06-03T01:58:14.852Z,99820.77
2023-06-03T02:00:42.654Z,99825.13
2023-06-03T02:03:09.745Z,99831.52
2023-06-03T02:05:36.492Z,99832.48
2023-06-03T02:08:03.555Z,99841.52
2023-06-03T02:10:30.644Z,99846.31
2023-06-03T02:12:59.739Z,99848.48
2023-06-03T02:15:26.636Z,99853.52
2023-06-03T02:17:56.083Z,99853.13
2023-06-03T02:20:23.324Z,99859.27
2023-06-03T02:22:52.339Z,99863.58
2023-06-03T02:25:20.972Z,99864.00
2023-06-03T02:27:48.848Z,99866.88
2023-06-03T02:30:15.533Z,99871.43
2023-06-03T02:32:42.486Z,99871.04
2023-06-03T02:35:11.194Z,99872.33
2023-06-03T02:37:40.956Z,99875.44
2023-06-03T02:40:09.925Z,99880.94
2023-06-03T02:43:14.263Z,99882.64
2023-06-03T02:45:46.448Z,99883.92
2023-06-03T02:48:21.446Z,99887.37
2023-06-03T02:50:50.131Z,99885.69
2023-06-03T02:53:18.299Z,99891.20
2023-06-03T02:55:46.395Z,99889.71
2023-06-03T02:58:18.405Z,99891.96
2023-06-03T03:01:18.412Z,99893.16
2023-06-03T03:03:56.329Z,99892.45
2023-06-03T03:06:24.703Z,99898.04
2023-06-03T03:09:04.561Z,99890.96
2023-06-03T03:11:51.284Z,99893.13
2023-06-03T03:15:04.689Z,99891.06
2023-06-03T03:17:37.350Z,99890.50
2023-06-03T03:20:05.888Z,99892.64
2023-06-03T03:22:40.036Z,99899.30
2023-06-03T03:25:28.098Z,99910.27
2023-06-03T03:27:56.672Z,99919.34
2023-06-03T03:30:23.967Z,99924.18
2023-06-03T03:32:51.024Z,99931.23
2023-06-03T03:35:21.931Z,99932.40
2023-06-03T03:38:16.546Z,99932.54
2023-06-03T03:40:52.745Z,99940.77
2023-06-03T03:43:20.429Z,99943.11
2023-06-03T03:45:47.780Z,99946.11
2023-06-03T03:48:21.012Z,99948.27
2023-06-03T03:50:51.595Z,99950.65
2023-06-03T03:53:29.707Z,99951.88
2023-06-03T03:56:01.182Z,99959.27
2023-06-03T03:58:37.482Z,99963.44
2023-06-03T04:01:17.194Z,99965.73
2023-06-03T04:03:59.387Z,99967.02
2023-06-03T04:06:38.556Z,99970.38
2023-06-03T04:09:09.387Z,99971.49
2023-06-03T04:11:40.851Z,99969.09
2023-06-03T04:14:14.689Z,99968.98
2023-06-03T04:16:52.165Z,99969.04
2023-06-03T04:19:40.390Z,99971.08
2023-06-03T04:22:18.580Z,99976.51
2023-06-03T04:24:45.697Z,99979.83
2023-06-03T04:27:13.168Z,99980.00
2023-06-03T04:29:40.457Z,99986.02
2023-06-03T04:32:07.870Z,99988.17
2023-06-03T04:34:36.735Z,99990.75
2023-06-03T04:37:04.329Z,99993.52
2023-06-03T04:39:31.297Z,99994.58
2023-06-03T04:42:02.925Z,99990.56
2023-06-03T04:44:35.215Z,99992.27
2023-06-03T04:47:02.843Z,99997.78
2023-06-03T04:49:32.808Z,99998.43
2023-06-03T04:51:59.513Z,100002.40
2023-06-03T04:54:26.263Z,100001.31
2023-06-03T04:56:53.624Z,100008.13
2023-06-03T04:59:20.712Z,100007.86
2023-06-03T05:01:55.527Z,100008.45
2023-06-03T05:04:32.961Z,100007.90
2023-06-03T05:07:12.714Z,100004.61
2023-06-03T05:09:47.181Z,100005.08
2023-06-03T05:12:14.204Z,100011.83
2023-06-03T05:14:41.195Z,100010.50
2023-06-03T05:17:24.410Z,100024.51
2023-06-03T05:20:05.978Z,100028.91
2023-06-03T05:22:44.700Z,100021.67
2023-06-03T05:25:13.023Z,100022.32
2023-06-03T05:27:45.879Z,100030.67
2023-06-03T05:30:22.192Z,100025.84
2023-06-03T05:32:50.376Z,100027.34
2023-06-03T05:35:17.893Z,100026.03
2023-06-03T05:37:45.653Z,100028.14
2023-06-03T05:40:16.719Z,100028.41
2023-06-03T05:42:50.831Z,100032.30
2023-06-03T05:45:18.579Z,100032.10
2023-06-03T05:47:46.073Z,100036.86
2023-06-03T05:50:13.391Z,100031.73
2023-06-03T05:52:43.532Z,100036.91
2023-06-03T05:55:14.426Z,100040.96
2023-06-03T05:57:44.520Z,100041.56
2023-06-03T06:00:22.957Z,100039.58
2023-06-03T06:02:58.829Z,100043.30
2023-06-03T06:05:35.089Z,100047.80
2023-06-03T06:08:09.191Z,100046.02
2023-06-03T06:10:47.451Z,100048.35
2023-06-03T06:13:22.337Z,100041.02
2023-06-03T06:16:06.810Z,100052.27
2023-06-03T06:18:43.351Z,100054.88
2023-06-03T06:21:19.123Z,100052.70
2023-06-03T06:24:18.245Z,100050.80
2023-06-03T06:26:52.946Z,100050.79
2023-06-03T06:29:28.908Z,100056.26
2023-06-03T06:32:04.685Z,100049.29
2023-06-03T06:34:39.149Z,100052.88
2023-06-03T06:37:10.306Z,100056.67
2023-06-03T06:39:53.523Z,100060.54
2023-06-03T06:42:36.512Z,100057.86
2023-06-03T06:45:28.621Z,100052.95
2023-06-03T06:48:13.951Z,100055.98
2023-06-03T06:50:49.087Z,100065.91
2023-06-03T06:53:20.929Z,100072.74
2023-06-03T06:56:03.095Z,100062.12
2023-06-03T06:58:43.624Z,100061.44
2023-06-03T07:01:15.677Z,100061.14
2023-06-03T07:03:47.442Z,100061.83
2023-06-03T07:06:15.689Z,100063.80
2023-06-03T07:08:45.790Z,100066.48
2023-06-03T07:11:15.590Z,100069.23
2023-06-03T07:13:46.599Z,100067.77
2023-06-03T07:16:24.755Z,100072.89
2023-06-03T07:19:19.542Z,100073.70
2023-06-03T07:21:53.000Z,100077.55
2023-06-03T07:24:22.618Z,100070.98
2023-06-03T07:26:50.541Z,100077.48
2023-06-03T07:29:17.513Z,100081.38
2023-06-03T07:31:46.840Z,100075.46
2023-06-03T07:34:21.117Z,100076.42
2023-06-03T07:36:55.296Z,100076.27
2023-06-03T07:39:22.833Z,100081.00
2023-06-03T07:41:56.884Z,100078.95
2023-06-03T07:44:50.700Z,100078.08
2023-06-03T07:47:36.587Z,100068.98
2023-06-03T07:50:06.737Z,100076.04
2023-06-03T07:52:38.254Z,100070.93
2023-06-03T07:55:11.740Z,100078.88
2023-06-03T07:57:59.511Z,100080.91
2023-06-03T08:00:26.276Z,100083.60
2023-06-03T08:02:53.328Z,100083.60
2023-06-03T08:05:32.885Z,100082.59
2023-06-03T08:08:23.677Z,100077.72
2023-06-03T08:10:55.902Z,100081.33
2023-06-03T08:13:22.643Z,100085.16
2023-06-03T08:15:49.418Z,100081.92
2023-06-03T08:18:41.451Z,100083.36
2023-06-03T08:21:09.680Z,100082.31
2023-06-03T08:23:44.330Z,100083.25
2023-06-03T08:26:11.796Z,100088.80
2023-06-03T08:28:39.527Z,100087.11
2023-06-03T08:31:09.757Z,100084.47
2023-06-03T08:33:36.987Z,100088.80
2023-06-03T08:36:19.111Z,100087.36
2023-06-03T08:38:54.284Z,100088.34
2023-06-03T08:41:47.103Z,100092.85
2023-06-03T08:44:47.593Z,100087.96
2023-06-03T08:47:58.346Z,100080.69
2023-06-03T08:50:33.125Z,100087.36
2023-06-03T08:53:09.279Z,100081.93
2023-06-03T08:55:39.296Z,100080.84
2023-06-03T08:58:19.339Z,100080.73
2023-06-03T09:00:56.306Z,100088.09
2023-06-03T09:03:26.576Z,100082.98
2023-06-03T09:05:56.724Z,100095.83
2023-06-03T09:08:35.963Z,100089.98
2023-06-03T09:11:12.747Z,100087.27
2023-06-03T09:13:45.919Z,100091.94
2023-06-03T09:16:14.959Z,100089.84
2023-06-03T09:19:01.984Z,100088.45
2023-06-03T09:21:47.506Z,100088.86
2023-06-03T09:24:40.552Z,100081.73
2023-06-03T09:27:08.594Z,100074.19
2023-06-03T09:29:42.282Z,100075.48
2023-06-03T09:32:17.951Z,100079.64
2023-06-03T09:34:44.772Z,100074.23
2023-06-03T09:37:20.544Z,100069.96
2023-06-03T09:39:49.526Z,100075.71
2023-06-03T09:42:18.443Z,100074.73
2023-06-03T09:44:56.375Z,100075.57
2023-06-03T09:47:26.024Z,100080.18
2023-06-03T09:50:11.157Z,100073.23
2023-06-03T09:52:44.861Z,100076.41
2023-06-03T09:55:16.020Z,100076.91
2023-06-03T09:58:28.958Z,100071.20
2023-06-03T10:01:02.253Z,100070.91
2023-06-03T10:03:31.572Z,100074.02
2023-06-03T10:06:17.600Z,100079.52
2023-06-03T10:08:49.234Z,100082.19
2023-06-03T10:11:21.606Z,100078.56
2023-06-03T10:13:50.585Z,100075.91
2023-06-03T10:16:19.789Z,100077.35
2023-06-03T10:19:00.551Z,100084.45
2023-06-03T10:21:29.257Z,100083.14
2023-06-03T10:23:59.722Z,100084.37
2023-06-03T10:26:26.960Z,100074.92
2023-06-03T10:28:55.672Z,100073.21
2023-06-03T10:31:25.070Z,100083.55
2023-06-03T10:33:52.658Z,100083.73
2023-06-03T10:36:20.943Z,100082.84
2023-06-03T10:38:47.652Z,100084.69
2023-06-03T10:41:14.719Z,100083.77
2023-06-03T10:43:44.220Z,100083.45
2023-06-03T10:46:15.893Z,100069.65
2023-06-03T10:48:45.946Z,100075.34
2023-06-03T10:51:31.331Z,100070.85
2023-06-03T10:54:25.136Z,100084.72
2023-06-03T10:57:00.822Z,100071.15
2023-06-03T10:59:31.288Z,100068.42
2023-06-03T11:02:03.420Z,100069.35
2023-06-03T11:04:32.927Z,100068.64
2023-06-03T11:07:01.221Z,100066.30
2023-06-03T11:09:40.017Z,100053.73
2023-06-03T11:12:14.852Z,100056.11
2023-06-03T11:14:44.085Z,100049.45
2023-06-03T11:17:12.994Z,100049.23
2023-06-03T11:19:45.828Z,100053.27
2023-06-03T11:22:35.769Z,100057.38
2023-06-03T11:25:04.901Z,100062.35
2023-06-03T11:27:32.058Z,100057.77
2023-06-03T11:30:07.802Z,100064.64
2023-06-03T11:32:37.942Z,100066.80
2023-06-03T11:35:05.528Z,100065.77
2023-06-03T11:37:43.300Z,100061.77
2023-06-03T11:40:18.485Z,100067.15
2023-06-03T11:42:51.508Z,100075.26
2023-06-03T11:45:25.922Z,100068.11
2023-06-03T11:48:06.323Z,100069.58
2023-06-03T11:50:59.223Z,100070.52
2023-06-03T11:53:38.965Z,100068.84
2023-06-03T11:56:09.197Z,100071.59
2023-06-03T11:58:44.142Z,100071.04
2023-06-03T12:01:20.472Z,100066.92
2023-06-03T12:04:07.040Z,100061.71
2023-06-03T12:06:45.744Z,100062.30
2023-06-03T12:09:18.722Z,100059.84
2023-06-03T12:11:49.077Z,100054.63
2023-06-03T12:14:33.564Z,100057.05
2023-06-03T12:17:28.512Z,100057.16
2023-06-03T12:19:58.695Z,100061.30
2023-06-03T12:22:26.300Z,100054.41
2023-06-03T12:25:14.447Z,100056.69
2023-06-03T12:28:29.522Z,100047.34
2023-06-03T12:31:40.182Z,100050.66
2023-06-03T12:34:38.067Z,100049.81
2023-06-03T12:43:47.548Z,100040.08
2023-06-03T12:46:21.611Z,100033.90
2023-06-03T12:48:48.703Z,100032.94
2023-06-03T12:51:27.794Z,100030.00
2023-06-03T12:53:56.374Z,100028.40
2023-06-03T12:56:31.472Z,100023.12
2023-06-03T12:59:06.775Z,100015.62
2023-06-03T13:01:37.336Z,100013.24
2023-06-03T13:04:30.073Z,100018.89
2023-06-03T13:07:10.955Z,100012.00
2023-06-03T13:10:03.920Z,100010.91
2023-06-03T13:12:45.697Z,100017.59
2023-06-03T13:15:27.922Z,100018.66
2023-06-03T13:18:02.171Z,100011.74
2023-06-03T13:20:29.315Z,100016.33
2023-06-03T13:22:56.273Z,100009.38
2023-06-03T13:25:24.465Z,100008.20
2023-06-03T13:27:55.103Z,100007.66
2023-06-03T13:30:28.080Z,100012.02
2023-06-03T13:32:59.958Z,100006.75
2023-06-03T13:35:34.471Z,100001.45
2023-06-03T13:38:21.030Z,100009.54
2023-06-03T13:41:20.567Z,100015.46
2023-06-03T13:44:25.122Z,100011.70
2023-06-03T13:47:11.226Z,100014.42
2023-06-03T13:50:28.060Z,100015.21
2023-06-03T13:53:08.540Z,100022.98
2023-06-03T13:55:56.967Z,100024.23
2023-06-03T13:58:37.574Z,100021.41
2023-06-03T14:01:55.233Z,100016.59
2023-06-03T14:04:20.720Z,100024.83
2023-06-03T14:07:26.913Z,100024.80
2023-06-03T14:09:57.019Z,100024.41
2023-06-03T14:12:46.837Z,100014.15
2023-06-03T14:18:43.539Z,100009.77
2023-06-03T14:21:38.037Z,100008.36
2023-06-03T14:25:29.679Z,100003.29
2023-06-03T14:27:56.751Z,100003.41
2023-06-03T14:36:47.352Z,100000.42
2023-06-03T14:39:21.760Z,99999.00
2023-06-03T14:41:57.344Z,99996.24
2023-06-03T14:44:31.960Z,100001.40
2023-06-03T14:48:10.132Z,100002.81
2023-06-03T14:50:21.956Z,99997.41
2023-06-03T14:53:49.393Z,99995.48
2023-06-03T14:56:18.049Z,99995.23
2023-06-03T15:02:12.809Z,100010.33
2023-06-03T15:05:03.707Z,100000.77
2023-06-03T15:07:36.796Z,100000.39
2023-06-03T15:10:20.810Z,100004.89
2023-06-03T15:13:09.679Z,100003.63
2023-06-03T15:15:48.883Z,100000.81
2023-06-03T15:18:39.395Z,100004.48
2023-06-03T15:21:20.112Z,99992.98
2023-06-03T15:24:08.903Z,100000.70
2023-06-03T15:26:53.508Z,99997.17
2023-06-03T15:29:55.704Z,99993.52
2023-06-03T15:32:31.348Z,99993.66
2023-06-03T15:35:22.100Z,99993.52
2023-06-03T15:38:27.800Z,99998.50
2023-06-03T15:41:21.668Z,99994.85
2023-06-03T15:47:07.160Z,100002.46
2023-06-03T15:49:42.622Z,100000.63
2023-06-03T15:52:29.496Z,100004.66
2023-06-03T16:01:07.881Z,100005.91
2023-06-03T16:03:34.819Z,100015.00
2023-06-03T16:06:12.752Z,100014.49
2023-06-03T16:08:46.161Z,100013.89
2023-06-03T16:12:21.862Z,100015.20
2023-06-03T16:15:08.214Z,100018.09
2023-06-03T16:17:38.122Z,100022.08
2023-06-03T16:20:16.491Z,100027.90
2023-06-03T16:26:09.415Z,100027.79
2023-06-03T16:29:13.303Z,100028.60
2023-06-03T16:32:22.715Z,100026.30
2023-06-03T16:35:19.432Z,100033.77
2023-06-03T16:37:59.678Z,100035.97
2023-06-03T16:41:00.472Z,100032.27
2023-06-03T16:43:34.155Z,100034.35
2023-06-03T16:46:29.965Z,100039.94
2023-06-03T16:49:43.990Z,100045.04
2023-06-03T16:52:15.845Z,100044.51
2023-06-03T16:54:44.988Z,100050.79
2023-06-03T16:57:15.391Z,100052.80
2023-06-03T16:59:44.808Z,100053.79
2023-06-03T17:02:18.782Z,100051.71
2023-06-03T17:04:49.864Z,100049.64
2023-06-03T17:07:31.831Z,100048.05
2023-06-03T17:10:01.060Z,100047.73
2023-06-03T17:12:31.919Z,100048.01
2023-06-03T17:15:27.102Z,100048.41
2023-06-03T17:18:34.123Z,100049.00
2023-06-03T17:21:35.494Z,100047.74
2023-06-03T17:28:23.924Z,100045.02
2023-06-03T17:38:48.846Z,100036.23
2023-06-03T17:44:42.363Z,100039.80
2023-06-03T17:59:37.152Z,100043.08
2023-06-03T18:02:44.539Z,100042.50
2023-06-03T18:05:34.806Z,100050.50
2023-06-03T18:08:27.650Z,100055.57
2023-06-03T18:11:41.842Z,100057.17
2023-06-03T18:14:34.282Z,100059.56
2023-06-03T18:24:52.838Z,100071.92
2023-06-03T18:27:33.940Z,100073.36
2023-06-03T18:30:11.849Z,100076.41
2023-06-03T18:32:54.418Z,100081.11
2023-06-03T18:35:30.456Z,100080.60
2023-06-03T18:38:00.667Z,100079.96
2023-06-03T18:40:30.428Z,100079.88
2023-06-03T18:42:57.674Z,100077.56
2023-06-03T18:45:27.818Z,100079.23
2023-06-03T18:47:55.108Z,100086.77
2023-06-03T18:50:21.879Z,100091.69
2023-06-03T18:52:51.399Z,100091.48
2023-06-03T18:55:18.596Z,100093.38
2023-06-03T18:57:45.753Z,100095.90
2023-06-03T19:00:13.089Z,100100.15
2023-06-03T19:02:47.267Z,100105.62
2023-06-03T19:05:14.098Z,100109.63
2023-06-03T19:07:41.370Z,100116.42
2023-06-03T19:10:08.121Z,100112.21
2023-06-03T19:12:35.275Z,100115.52
2023-06-03T19:15:02.872Z,100121.51
2023-06-03T19:17:29.543Z,100121.88
2023-06-03T19:19:56.241Z,100123.42
2023-06-03T19:22:22.896Z,100123.67
2023-06-03T19:24:49.655Z,100128.52
2023-06-03T19:27:16.423Z,100131.11
2023-06-03T19:29:43.161Z,100127.94
2023-06-03T19:32:10.037Z,100133.20
2023-06-03T19:34:36.944Z,100136.08
2023-06-03T19:37:07.087Z,100136.92
2023-06-03T19:39:34.102Z,100141.56
2023-06-03T19:42:00.992Z,100142.27
2023-06-03T19:44:30.396Z,100144.28
2023-06-03T19:46:57.580Z,100140.61
2023-06-03T19:49:33.393Z,100143.98
2023-06-03T19:52:01.717Z,100147.80
2023-06-03T19:54:30.863Z,100156.98
2023-06-03T19:56:57.750Z,100153.77
2023-06-03T19:59:25.957Z,100155.84
2023-06-03T20:01:53.865Z,100151.27
2023-06-03T20:04:33.726Z,100154.84
2023-06-03T20:07:11.240Z,100153.08
2023-06-03T20:09:40.538Z,100155.05
2023-06-03T20:12:07.295Z,100152.89
2023-06-03T20:14:34.053Z,100148.77
2023-06-03T20:17:03.939Z,100147.35
2023-06-03T20:19:35.763Z,100152.56
2023-06-03T20:22:13.256Z,100151.48
2023-06-03T20:24:40.380Z,100149.23
2023-06-03T20:27:11.498Z,100154.25
2023-06-03T20:29:39.070Z,100153.02
2023-06-03T20:32:08.860Z,100154.42
2023-06-03T20:34:40.536Z,100150.78
2023-06-03T20:37:07.815Z,100148.67
2023-06-03T20:39:34.521Z,100152.91
2023-06-03T20:42:01.563Z,100155.54
2023-06-03T20:44:28.419Z,100157.91
2023-06-03T20:47:30.828Z,100164.20
2023-06-03T20:49:48.091Z,100163.89
2023-06-03T20:52:15.232Z,100162.20
2023-06-03T20:54:44.615Z,100156.06
2023-06-03T20:57:11.493Z,100154.34
2023-06-03T20:59:43.908Z,100156.41
2023-06-03T21:02:12.579Z,100158.64
2023-06-03T21:04:39.628Z,100162.58
2023-06-03T21:07:08.272Z,100165.20
2023-06-03T21:09:35.318Z,100164.70
2023-06-03T21:12:02.305Z,100166.02
2023-06-03T21:14:54.951Z,100166.32
2023-06-03T21:17:21.995Z,100166.23
2023-06-03T21:19:49.231Z,100167.63
2023-06-03T21:22:17.994Z,100171.82
2023-06-03T21:24:52.224Z,100172.35
2023-06-03T21:27:20.942Z,100170.95
2023-06-03T21:29:48.781Z,100172.25
2023-06-03T21:32:18.094Z,100172.38
2023-06-03T21:34:45.270Z,100176.26
2023-06-03T21:37:12.210Z,100174.77
2023-06-03T21:39:39.255Z,100174.42
2023-06-03T21:42:06.637Z,100179.41
2023-06-03T21:44:38.987Z,100180.77
2023-06-03T21:47:09.170Z,100180.39
2023-06-03T21:49:35.996Z,100182.02
2023-06-03T21:52:02.856Z,100182.92
2023-06-03T21:54:30.008Z,100187.87
2023-06-03T21:56:58.168Z,100184.36
2023-06-03T21:59:25.349Z,100188.52
2023-06-03T22:01:52.036Z,100188.27
2023-06-03T22:04:20.222Z,100193.53
2023-06-03T22:06:46.985Z,100200.78
2023-06-03T22:09:13.732Z,100204.36
2023-06-03T22:11:40.496Z,100203.45
2023-06-03T22:14:07.222Z,100200.88
2023-06-03T22:16:42.125Z,100202.02
2023-06-03T22:19:14.488Z,100203.20
2023-06-03T22:21:41.691Z,100203.67
2023-06-03T22:24:08.634Z,100205.76
2023-06-03T22:26:38.612Z,100207.02
2023-06-03T22:29:05.774Z,100200.95
2023-06-03T22:31:32.466Z,100205.17
2023-06-03T22:33:59.161Z,100201.41
2023-06-03T22:36:25.997Z,100201.08
2023-06-03T22:38:53.173Z,100199.16
2023-06-03T22:41:20.513Z,100202.04
2023-06-03T22:43:47.241Z,100198.92
2023-06-03T22:46:14.034Z,100197.98
2023-06-03T22:48:41.301Z,100196.17
2023-06-03T22:51:08.603Z,100200.25
2023-06-03T22:53:35.817Z,100200.24
2023-06-03T22:56:02.827Z,100202.88
2023-06-03T22:58:29.727Z,100199.08
2023-06-03T23:00:56.730Z,100197.03
2023-06-03T23:03:29.348Z,100198.64
2023-06-03T23:06:17.404Z,100202.56
2023-06-03T23:08:44.256Z,100202.27
2023-06-03T23:11:11.144Z,100202.52
2023-06-03T23:13:41.817Z,100203.26
2023-06-03T23:16:08.874Z,100205.41
2023-06-03T23:18:36.176Z,100209.16
2023-06-03T23:21:03.346Z,100211.33
2023-06-03T23:23:37.648Z,100213.73
2023-06-03T23:26:07.934Z,100216.91
2023-06-03T23:28:34.844Z,100216.67
2023-06-03T23:31:01.675Z,100219.14
2023-06-03T23:33:28.560Z,100213.33
2023-06-03T23:35:55.761Z,100213.33
2023-06-03T23:38:22.253Z,100217.48
2023-06-03T23:40:55.199Z,100219.31
2023-06-03T23:43:22.003Z,100219.02
2023-06-03T23:45:48.777Z,100217.13
2023-06-03T23:48:19.030Z,100218.48
2023-06-03T23:50:46.045Z,100222.72
2023-06-03T23:53:13.036Z,100224.64
2023-06-03T23:55:39.991Z,100222.09
2023-06-03T23:58:09.682Z,100223.55
